Time;durP1;ratioP1;P1;durP2;ratioP2;P2;SDS_P1;SDS_P2;PMS_P1;PMS_P2;Temp;Humidity;BMP_temperature;BMP_pressure;BME280_temperature;BME280_humidity;BME280_pressure;Samples;Min_cycle;Max_cycle;Signal;HPM_P1;HPM_P2
2022/11/29 00:00:08;;;;;;;51.40;12.00;;;9.00;92.30;;;;;;5067100;28;20665;-72
2022/11/29 00:02:39;;;;;;;38.75;10.13;;;9.00;92.30;;;;;;5068418;28;20183;-72
2022/11/29 00:05:07;;;;;;;44.70;10.93;;;9.00;92.50;;;;;;5069970;28;20548;-72
2022/11/29 00:07:36;;;;;;;37.23;9.67;;;9.00;92.40;;;;;;5068258;28;20422;-72
2022/11/29 00:10:03;;;;;;;47.45;11.75;;;9.00;92.60;;;;;;5068095;28;20289;-72
2022/11/29 00:12:30;;;;;;;41.72;10.15;;;9.00;92.50;;;;;;5089688;28;20056;-72
2022/11/29 00:14:57;;;;;;;38.42;8.13;;;9.00;92.60;;;;;;5090084;28;20049;-72
2022/11/29 00:17:25;;;;;;;39.42;9.13;;;9.00;92.70;;;;;;5091765;28;20060;-72
2022/11/29 00:19:52;;;;;;;34.70;9.70;;;9.00;92.90;;;;;;5089329;28;20080;-72
2022/11/29 00:22:19;;;;;;;39.30;10.65;;;9.00;92.90;;;;;;5092050;28;20246;-72
2022/11/29 00:24:47;;;;;;;41.58;11.40;;;9.00;92.90;;;;;;5092168;28;20522;-72
2022/11/29 00:27:14;;;;;;;38.25;10.60;;;9.00;92.70;;;;;;5092634;28;20131;-72
2022/11/29 00:29:41;;;;;;;37.10;9.95;;;9.00;92.70;;;;;;5074478;28;20126;-72
2022/11/29 00:32:08;;;;;;;40.60;10.10;;;9.00;92.60;;;;;;5091950;28;20048;-72
2022/11/29 00:34:36;;;;;;;38.92;8.15;;;9.00;92.60;;;;;;5088334;28;20363;-72
2022/11/29 00:37:03;;;;;;;36.28;9.70;;;9.00;92.60;;;;;;5070075;28;20048;-72
2022/11/29 00:39:30;;;;;;;33.03;8.48;;;9.00;92.80;;;;;;5071378;28;20532;-72
2022/11/29 00:41:58;;;;;;;38.58;9.10;;;9.00;92.70;;;;;;5090251;28;20056;-72
2022/11/29 00:44:25;;;;;;;29.30;8.47;;;9.00;92.70;;;;;;5092015;28;20082;-72
2022/11/29 00:46:52;;;;;;;34.17;9.65;;;9.00;92.90;;;;;;5093075;28;20293;-72
2022/11/29 00:49:20;;;;;;;31.48;9.75;;;9.00;92.90;;;;;;5092977;28;20063;-72
2022/11/29 00:51:47;;;;;;;36.08;10.15;;;9.00;93.10;;;;;;5092893;28;20075;-72
2022/11/29 00:54:14;;;;;;;42.35;10.98;;;9.00;93.10;;;;;;5074955;28;20055;-72
2022/11/29 00:56:41;;;;;;;27.20;7.57;;;9.00;93.10;;;;;;5070983;28;20041;-72
2022/11/29 00:59:10;;;;;;;33.53;8.23;;;9.00;93.10;;;;;;5084837;28;20354;-72
2022/11/29 01:01:37;;;;;;;39.53;9.88;;;9.00;93.10;;;;;;5091956;28;20193;-72
2022/11/29 01:04:04;;;;;;;40.55;10.88;;;9.00;93.00;;;;;;5092507;28;20056;-72
2022/11/29 01:06:31;;;;;;;38.40;11.43;;;8.90;93.00;;;;;;5091467;28;20088;-72
2022/11/29 01:08:58;;;;;;;42.67;11.97;;;9.00;93.10;;;;;;5092051;28;20048;-72
2022/11/29 01:11:27;;;;;;;36.80;10.15;;;8.90;93.00;;;;;;5089932;28;20261;-72
2022/11/29 01:13:56;;;;;;;38.42;10.25;;;8.90;93.00;;;;;;5091040;28;20048;-72
2022/11/29 01:16:25;;;;;;;36.35;11.55;;;9.00;93.00;;;;;;5092417;28;20057;-72
2022/11/29 01:18:52;;;;;;;39.63;11.77;;;9.00;93.00;;;;;;5090777;28;20565;-72
2022/11/29 01:21:21;;;;;;;40.37;10.57;;;9.00;93.00;;;;;;5092740;28;20521;-72
2022/11/29 01:23:50;;;;;;;37.15;9.13;;;8.90;93.10;;;;;;5090890;28;20710;-72
2022/11/29 01:26:19;;;;;;;41.17;12.18;;;9.00;93.00;;;;;;5092137;28;20135;-72
2022/11/29 01:28:48;;;;;;;46.42;12.45;;;8.90;93.00;;;;;;5089178;28;20071;-72
2022/11/29 01:31:18;;;;;;;39.00;11.95;;;8.90;92.90;;;;;;5090875;28;20128;-72
2022/11/29 01:33:46;;;;;;;37.43;11.47;;;8.90;92.80;;;;;;5076790;28;20069;-72
2022/11/29 01:36:14;;;;;;;37.70;10.30;;;8.90;92.80;;;;;;5087362;28;20244;-72
2022/11/29 01:38:42;;;;;;;38.40;11.27;;;8.90;92.80;;;;;;5084441;28;20052;-72
2022/11/29 01:41:12;;;;;;;39.92;11.25;;;8.90;92.80;;;;;;5090677;28;20040;-72
2022/11/29 01:43:55;;;;;;;40.78;9.80;;;8.90;92.70;;;;;;5091068;28;20545;-72
2022/11/29 01:46:22;;;;;;;34.03;9.97;;;9.00;92.70;;;;;;5074757;28;20499;-72
2022/11/29 01:48:56;;;;;;;30.67;9.57;;;8.90;92.70;;;;;;5084988;28;20279;-72
2022/11/29 01:51:25;;;;;;;52.72;12.43;;;8.90;92.70;;;;;;5091088;28;20048;-72
2022/11/29 01:53:52;;;;;;;44.20;11.60;;;8.90;92.70;;;;;;5091712;28;20551;-72
2022/11/29 01:56:20;;;;;;;34.92;9.10;;;8.90;92.60;;;;;;5090607;28;20041;-72
2022/11/29 01:58:47;;;;;;;41.57;11.93;;;8.90;92.60;;;;;;5079357;28;20136;-72
2022/11/29 02:01:15;;;;;;;36.75;8.30;;;8.90;92.60;;;;;;5070967;28;20256;-72
2022/11/29 02:03:42;;;;;;;32.15;8.95;;;8.80;92.60;;;;;;5068880;28;20151;-72
2022/11/29 02:06:11;;;;;;;34.40;9.45;;;8.80;92.50;;;;;;5069965;28;20187;-72
2022/11/29 02:08:40;;;;;;;32.90;9.50;;;8.80;92.60;;;;;;5079571;28;20081;-72
2022/11/29 02:11:45;;;;;;;33.30;10.73;;;8.80;92.70;;;;;;5071090;28;20049;-72
2022/11/29 02:14:28;;;;;;;36.55;8.80;;;8.70;92.70;;;;;;5069795;28;20251;-72
2022/11/29 02:17:03;;;;;;;39.42;9.80;;;8.60;92.90;;;;;;5076509;28;20045;-72
2022/11/29 02:20:09;;;;;;;27.48;7.15;;;8.70;92.80;;;;;;5069520;28;20057;-72
2022/11/29 02:22:41;;;;;;;35.78;9.63;;;8.60;92.80;;;;;;5069924;28;20072;-72
2022/11/29 02:25:27;;;;;;;29.73;9.33;;;8.60;92.80;;;;;;5071286;28;20084;-72
2022/11/29 02:28:26;;;;;;;32.45;8.43;;;8.60;92.80;;;;;;5069667;28;20279;-72
2022/11/29 02:31:31;;;;;;;34.75;8.93;;;8.60;92.70;;;;;;5064155;28;20553;-72
2022/11/29 02:34:14;;;;;;;32.88;8.75;;;8.60;92.70;;;;;;5071286;28;20049;-72
2022/11/29 02:37:01;;;;;;;28.95;7.32;;;8.60;92.70;;;;;;5070829;28;20056;-72
2022/11/29 02:39:52;;;;;;;28.97;7.90;;;8.60;92.70;;;;;;5088895;28;20053;-72
2022/11/29 02:42:52;;;;;;;27.83;7.72;;;8.60;92.70;;;;;;5089935;28;20271;-72
2022/11/29 02:45:35;;;;;;;24.23;7.38;;;8.60;92.60;;;;;;5070879;28;20536;-72
2022/11/29 02:48:17;;;;;;;22.85;6.63;;;8.60;92.60;;;;;;5069393;28;20106;-72
2022/11/29 02:50:53;;;;;;;20.88;5.63;;;8.60;92.70;;;;;;5074666;28;20049;-73
2022/11/29 02:53:28;;;;;;;37.80;7.33;;;8.50;92.60;;;;;;5069290;28;20083;-72
2022/11/29 02:56:04;;;;;;;28.17;7.00;;;8.50;92.60;;;;;;5068404;28;20909;-72
2022/11/29 02:58:41;;;;;;;25.40;6.88;;;8.50;92.40;;;;;;5069365;28;20488;-72
2022/11/29 03:01:15;;;;;;;18.13;5.90;;;8.50;92.40;;;;;;5079679;28;20129;-72
2022/11/29 03:03:49;;;;;;;21.20;6.95;;;8.40;92.40;;;;;;5072506;28;20041;-72
2022/11/29 03:06:26;;;;;;;28.40;7.47;;;8.40;92.30;;;;;;5077249;28;20073;-72
2022/11/29 03:09:00;;;;;;;23.77;7.45;;;8.40;92.40;;;;;;5052402;28;20256;-72
2022/11/29 03:11:34;;;;;;;22.70;7.32;;;8.30;92.30;;;;;;5068713;28;20128;-72
2022/11/29 03:14:13;;;;;;;19.95;6.57;;;8.40;92.30;;;;;;5049997;28;20049;-72
2022/11/29 03:16:47;;;;;;;24.48;7.22;;;8.30;92.30;;;;;;5083672;28;20075;-72
2022/11/29 03:19:35;;;;;;;25.67;7.77;;;8.30;92.30;;;;;;5088932;28;20045;-72
2022/11/29 03:22:11;;;;;;;27.85;7.70;;;8.30;92.40;;;;;;5087146;28;20282;-72
2022/11/29 03:24:44;;;;;;;27.02;8.45;;;8.30;92.40;;;;;;5089169;28;20052;-72
2022/11/29 03:27:15;;;;;;;26.50;8.10;;;8.30;92.40;;;;;;5088134;28;20135;-72
2022/11/29 03:29:48;;;;;;;24.23;7.80;;;8.30;92.30;;;;;;5088662;28;20106;-72
2022/11/29 03:32:22;;;;;;;25.77;8.30;;;8.30;92.40;;;;;;5085745;28;20056;-72
2022/11/29 03:34:58;;;;;;;34.50;8.60;;;8.30;92.40;;;;;;5083524;28;20394;-72
2022/11/29 03:37:35;;;;;;;29.90;8.57;;;8.30;92.30;;;;;;5085400;28;20132;-72
2022/11/29 03:40:06;;;;;;;29.83;8.75;;;8.40;92.30;;;;;;5093534;28;20049;-72
2022/11/29 03:42:38;;;;;;;23.65;8.25;;;8.40;92.30;;;;;;5088541;28;20060;-72
2022/11/29 03:45:13;;;;;;;25.17;7.90;;;8.40;92.10;;;;;;5090453;28;20086;-72
2022/11/29 03:47:50;;;;;;;24.88;8.27;;;8.40;92.10;;;;;;5070485;28;20251;-72
2022/11/29 03:50:22;;;;;;;21.05;7.57;;;8.40;92.10;;;;;;5090241;28;20056;-72
2022/11/29 03:52:54;;;;;;;29.85;9.10;;;8.40;92.00;;;;;;5092620;28;20064;-72
2022/11/29 03:55:33;;;;;;;30.15;8.45;;;8.40;92.10;;;;;;5091905;28;20928;-72
2022/11/29 03:58:15;;;;;;;27.87;8.50;;;8.40;92.00;;;;;;5090951;28;20494;-72
2022/11/29 04:01:05;;;;;;;25.30;7.20;;;8.40;91.90;;;;;;5108969;28;20337;-72
2022/11/29 04:03:52;;;;;;;22.10;7.03;;;8.30;91.80;;;;;;5092644;28;20099;-72
2022/11/29 04:06:30;;;;;;;25.60;7.63;;;8.30;91.70;;;;;;5079861;28;20052;-72
2022/11/29 04:09:32;;;;;;;20.58;7.22;;;8.20;91.90;;;;;;5073376;28;20108;-72
2022/11/29 04:12:37;;;;;;;20.47;7.10;;;8.20;92.00;;;;;;5082635;28;20088;-72
2022/11/29 04:15:35;;;;;;;22.58;7.57;;;8.20;92.00;;;;;;5092132;28;20263;-72
2022/11/29 04:18:47;;;;;;;23.30;7.78;;;8.20;92.00;;;;;;5093228;28;20159;-72
2022/11/29 04:21:35;;;;;;;19.25;7.03;;;8.20;92.00;;;;;;5091840;28;20059;-72
2022/11/29 04:24:45;;;;;;;25.02;7.72;;;8.20;92.00;;;;;;5090512;28;20044;-72
2022/11/29 04:27:39;;;;;;;21.87;6.70;;;8.20;92.10;;;;;;5091661;28;20136;-72
2022/11/29 04:30:15;;;;;;;23.70;7.40;;;8.20;92.10;;;;;;5088491;28;20276;-72
2022/11/29 04:33:25;;;;;;;34.83;7.68;;;8.20;92.10;;;;;;5091831;28;20053;-72
2022/11/29 04:36:28;;;;;;;29.95;7.32;;;8.20;92.00;;;;;;5086527;28;20064;-72
2022/11/29 04:39:29;;;;;;;20.42;6.57;;;8.20;92.00;;;;;;5030537;28;20045;-72
2022/11/29 04:42:22;;;;;;;26.93;6.63;;;8.20;92.00;;;;;;5072005;28;20084;-72
2022/11/29 04:45:19;;;;;;;17.55;6.88;;;8.10;92.00;;;;;;5073752;28;20239;-72
2022/11/29 04:48:01;;;;;;;31.00;7.68;;;8.10;92.00;;;;;;5072848;28;20665;-72
2022/11/29 04:50:42;;;;;;;20.52;7.35;;;8.10;92.00;;;;;;5072247;28;20061;-72
2022/11/29 04:53:37;;;;;;;24.15;6.07;;;8.10;92.00;;;;;;5072735;28;20073;-73
2022/11/29 04:56:17;;;;;;;33.53;7.40;;;8.10;92.00;;;;;;5076710;28;20135;-72
2022/11/29 04:58:53;;;;;;;39.97;7.85;;;8.10;92.00;;;;;;5089621;28;20266;-72
2022/11/29 05:01:31;;;;;;;39.85;6.32;;;8.10;92.00;;;;;;5074418;28;20131;-72
2022/11/29 05:04:07;;;;;;;59.20;8.80;;;8.10;92.00;;;;;;5090981;28;20047;-72
2022/11/29 05:06:42;;;;;;;20.50;7.20;;;8.10;92.00;;;;;;5089979;28;20056;-72
2022/11/29 05:09:18;;;;;;;42.37;7.70;;;8.10;92.00;;;;;;5080577;28;20052;-72
2022/11/29 05:11:59;;;;;;;26.63;7.32;;;8.10;91.90;;;;;;5090977;28;20346;-72
2022/11/29 05:14:45;;;;;;;26.08;7.00;;;8.10;91.90;;;;;;5090991;28;20048;-72
2022/11/29 05:17:29;;;;;;;25.95;7.18;;;8.10;91.90;;;;;;5091069;28;20044;-72
2022/11/29 05:20:16;;;;;;;30.10;7.20;;;8.10;91.90;;;;;;5091870;28;20121;-72
2022/11/29 05:22:58;;;;;;;22.43;7.27;;;8.10;91.90;;;;;;5091314;28;20049;-72
2022/11/29 05:25:36;;;;;;;40.08;7.57;;;8.10;91.90;;;;;;5091996;28;20427;-72
2022/11/29 05:28:11;;;;;;;20.33;6.70;;;8.10;91.90;;;;;;5091040;28;20396;-72
2022/11/29 05:30:57;;;;;;;16.63;5.70;;;8.10;91.90;;;;;;5092058;28;20072;-72
2022/11/29 05:33:39;;;;;;;23.50;5.72;;;8.10;91.90;;;;;;5089832;28;20051;-72
2022/11/29 05:36:14;;;;;;;38.47;7.80;;;8.00;91.90;;;;;;5075958;28;20079;-72
2022/11/29 05:39:00;;;;;;;28.05;6.00;;;8.00;91.80;;;;;;5072130;28;20256;-72
2022/11/29 05:41:55;;;;;;;37.30;7.38;;;8.00;91.90;;;;;;5070418;28;20048;-72
2022/11/29 05:44:31;;;;;;;31.08;7.68;;;8.00;91.80;;;;;;5070325;28;20164;-72
2022/11/29 05:47:01;;;;;;;29.23;7.03;;;8.00;91.90;;;;;;5071630;28;20059;-72
2022/11/29 05:49:38;;;;;;;42.67;8.70;;;8.00;91.90;;;;;;5070230;28;20047;-72
2022/11/29 05:52:21;;;;;;;26.02;6.38;;;8.00;92.00;;;;;;5079243;28;20255;-72
2022/11/29 05:55:02;;;;;;;28.10;7.00;;;8.00;92.10;;;;;;5078853;28;20052;-72
2022/11/29 05:57:37;;;;;;;25.95;5.75;;;8.00;92.00;;;;;;5070609;28;20052;-72
2022/11/29 06:00:07;;;;;;;29.52;6.72;;;8.00;92.10;;;;;;5070156;28;20060;-72
2022/11/29 06:02:50;;;;;;;24.70;6.60;;;8.00;92.40;;;;;;5070130;28;20059;-72
2022/11/29 06:05:24;;;;;;;36.03;8.20;;;8.00;92.20;;;;;;5069801;28;20368;-72
2022/11/29 06:07:58;;;;;;;23.50;6.70;;;8.00;92.30;;;;;;5072027;28;20603;-72
2022/11/29 06:10:32;;;;;;;26.23;6.32;;;8.00;92.40;;;;;;5083432;28;20055;-72
2022/11/29 06:13:09;;;;;;;33.45;7.47;;;7.80;92.50;;;;;;5089572;28;20052;-72
2022/11/29 06:15:57;;;;;;;39.13;8.33;;;7.90;92.50;;;;;;5089814;28;20048;-72
2022/11/29 06:18:51;;;;;;;34.60;7.25;;;7.80;92.60;;;;;;5091458;28;20362;-72
2022/11/29 06:21:28;;;;;;;44.25;7.10;;;7.80;92.70;;;;;;5071295;28;20139;-72
2022/11/29 06:24:14;;;;;;;30.02;6.18;;;7.80;92.60;;;;;;5071350;28;20060;-72
2022/11/29 06:27:10;;;;;;;24.02;5.28;;;7.80;92.70;;;;;;5070338;28;20134;-72
2022/11/29 06:29:44;;;;;;;26.43;6.30;;;7.80;93.00;;;;;;5072743;28;20051;-72
2022/11/29 06:32:24;;;;;;;23.90;4.57;;;7.80;92.90;;;;;;5087091;28;20252;-72
2022/11/29 06:34:59;;;;;;;12.70;4.22;;;7.80;93.00;;;;;;5075378;28;20044;-72
2022/11/29 06:37:59;;;;;;;17.80;3.90;;;7.70;93.10;;;;;;5090596;28;20044;-72
2022/11/29 06:40:26;;;;;;;12.52;3.33;;;7.60;93.30;;;;;;5048316;28;20132;-72
2022/11/29 06:42:54;;;;;;;32.80;6.60;;;7.60;93.50;;;;;;5032695;28;20053;-72
2022/11/29 06:45:22;;;;;;;41.47;6.72;;;7.60;93.80;;;;;;5047897;28;20280;-72
2022/11/29 06:47:55;;;;;;;20.50;4.32;;;7.60;93.60;;;;;;5032774;28;20049;-72
2022/11/29 06:50:33;;;;;;;39.58;8.27;;;7.60;93.40;;;;;;5032388;28;20053;-72
2022/11/29 06:53:07;;;;;;;29.42;6.28;;;7.50;93.30;;;;;;5048916;28;20100;-72
2022/11/29 06:55:44;;;;;;;23.83;5.63;;;7.50;93.20;;;;;;5065680;28;20088;-72
2022/11/29 06:58:22;;;;;;;23.75;5.18;;;7.50;93.50;;;;;;5032390;28;21242;-72
2022/11/29 07:00:55;;;;;;;24.63;5.93;;;7.50;93.70;;;;;;5049787;28;20049;-72
2022/11/29 07:03:38;;;;;;;32.55;6.90;;;7.50;93.70;;;;;;5047133;28;20050;-72
2022/11/29 07:06:20;;;;;;;25.00;6.57;;;7.50;93.70;;;;;;5050369;28;20053;-72
2022/11/29 07:08:52;;;;;;;27.17;5.53;;;7.50;93.50;;;;;;5032387;28;20128;-72
2022/11/29 07:11:20;;;;;;;28.33;5.15;;;7.40;93.50;;;;;;5032134;28;20371;-72
2022/11/29 07:13:47;;;;;;;19.63;5.45;;;7.40;93.40;;;;;;5050400;28;20045;-72
2022/11/29 07:16:21;;;;;;;21.30;5.47;;;7.40;93.60;;;;;;5050076;28;20068;-72
2022/11/29 07:19:00;;;;;;;20.83;4.90;;;7.40;93.50;;;;;;5048345;28;20077;-72
2022/11/29 07:21:41;;;;;;;24.80;5.37;;;7.30;93.50;;;;;;5048226;28;20077;-72
2022/11/29 07:24:22;;;;;;;22.20;5.90;;;7.30;93.60;;;;;;5038870;28;21312;-72
2022/11/29 07:26:57;;;;;;;20.98;5.93;;;7.20;93.60;;;;;;5055087;28;20057;-72
2022/11/29 07:29:33;;;;;;;17.65;5.00;;;7.20;93.60;;;;;;5056769;28;20149;-72
2022/11/29 07:32:10;;;;;;;18.30;6.97;;;7.20;93.60;;;;;;5038190;28;20653;-72
2022/11/29 07:34:49;;;;;;;15.93;6.00;;;7.20;93.50;;;;;;5037503;28;20056;-72
2022/11/29 07:37:22;;;;;;;25.58;6.85;;;7.20;93.60;;;;;;5099029;22;21665;-72
2022/11/29 07:39:59;;;;;;;45.13;7.78;;;7.20;93.60;;;;;;5070772;28;20045;-72
2022/11/29 07:42:34;;;;;;;23.08;6.95;;;7.30;93.60;;;;;;5063253;28;20114;-72
2022/11/29 07:45:12;;;;;;;20.13;7.78;;;7.30;93.60;;;;;;4978305;28;20055;-72
2022/11/29 07:47:39;;;;;;;21.23;7.03;;;7.40;93.60;;;;;;5061634;28;20577;-72
2022/11/29 07:50:09;;;;;;;23.95;7.50;;;7.40;93.50;;;;;;5048640;28;20265;-72
2022/11/29 07:52:36;;;;;;;20.45;7.43;;;7.40;93.50;;;;;;5047889;28;20065;-72
2022/11/29 07:55:04;;;;;;;22.23;7.30;;;7.40;93.50;;;;;;5049293;28;20239;-72
2022/11/29 07:57:31;;;;;;;21.98;7.60;;;7.40;93.60;;;;;;5062269;28;20056;-72
2022/11/29 07:59:58;;;;;;;20.87;7.87;;;7.40;93.60;;;;;;5030148;28;20070;-72
2022/11/29 08:02:29;;;;;;;23.15;7.43;;;7.40;93.50;;;;;;5013983;28;20327;-72
2022/11/29 08:04:56;;;;;;;26.30;8.05;;;7.40;93.50;;;;;;5030638;28;20057;-72
2022/11/29 08:07:24;;;;;;;19.45;6.95;;;7.50;93.60;;;;;;5048414;28;20053;-72
2022/11/29 08:09:51;;;;;;;18.65;7.38;;;7.50;93.60;;;;;;5053326;28;20057;-72
2022/11/29 08:12:19;;;;;;;21.13;6.80;;;7.50;93.50;;;;;;5066535;28;20140;-72
2022/11/29 08:14:46;;;;;;;22.10;7.32;;;7.50;93.50;;;;;;5044915;28;20257;-72
2022/11/29 08:17:13;;;;;;;26.70;8.75;;;7.50;93.50;;;;;;5070550;28;20136;-72
2022/11/29 08:19:40;;;;;;;26.23;8.10;;;7.50;93.50;;;;;;5063725;28;20149;-72
2022/11/29 08:22:07;;;;;;;18.35;7.28;;;7.50;93.40;;;;;;5067242;28;20200;-72
2022/11/29 08:24:36;;;;;;;23.03;7.73;;;7.50;93.40;;;;;;5080147;28;20049;-72
2022/11/29 08:27:03;;;;;;;18.92;7.60;;;7.60;93.40;;;;;;5029977;28;20260;-72
2022/11/29 08:29:30;;;;;;;17.67;6.53;;;7.60;93.40;;;;;;5029340;28;20049;-72
2022/11/29 08:31:57;;;;;;;17.13;6.60;;;7.60;93.40;;;;;;5029738;28;20056;-72
2022/11/29 08:34:25;;;;;;;21.27;7.38;;;7.60;93.40;;;;;;5028395;28;20124;-72
2022/11/29 08:36:54;;;;;;;21.80;8.27;;;7.60;93.30;;;;;;5068802;28;20049;-72
2022/11/29 08:39:21;;;;;;;22.92;8.10;;;7.60;93.40;;;;;;5054876;28;20734;-72
2022/11/29 08:41:50;;;;;;;22.77;7.97;;;7.60;93.30;;;;;;5059204;28;20558;-72
2022/11/29 08:44:17;;;;;;;22.33;7.47;;;7.60;93.30;;;;;;5042189;28;20083;-72
2022/11/29 08:55:09;;;;;;;19.75;7.22;;;7.80;93.20;;;;;;5061027;28;20146;-73
2022/11/29 08:57:37;;;;;;;17.15;6.78;;;7.80;93.30;;;;;;5079517;28;20061;-72
2022/11/29 09:00:06;;;;;;;23.83;8.10;;;7.80;93.20;;;;;;5055329;28;20168;-73
2022/11/29 09:02:33;;;;;;;17.47;6.60;;;7.80;93.20;;;;;;5053642;28;20164;-72
2022/11/29 09:05:00;;;;;;;20.65;7.13;;;7.80;93.20;;;;;;5034239;28;20719;-72
2022/11/29 09:07:27;;;;;;;20.40;7.72;;;7.80;93.20;;;;;;5033879;28;21062;-72
2022/11/29 09:09:54;;;;;;;18.38;7.10;;;7.80;93.20;;;;;;5032342;28;20053;-72
2022/11/29 09:15:56;;;;;;;14.67;6.20;;;7.80;93.20;;;;;;5028957;28;20068;-72
2022/11/29 09:18:23;;;;;;;18.17;6.57;;;7.80;93.20;;;;;;5030336;28;20324;-72
2022/11/29 09:20:50;;;;;;;17.40;6.13;;;7.80;93.10;;;;;;5028691;28;20047;-73
2022/11/29 09:23:17;;;;;;;16.38;6.45;;;7.80;93.10;;;;;;5030336;28;21027;-73
2022/11/29 09:25:48;;;;;;;17.23;6.20;;;7.80;93.10;;;;;;5030133;28;20956;-72
2022/11/29 09:28:15;;;;;;;14.87;5.40;;;7.90;93.00;;;;;;5029636;28;20049;-72
2022/11/29 09:30:42;;;;;;;18.30;7.15;;;7.90;93.00;;;;;;5031255;28;20368;-72
2022/11/29 09:33:10;;;;;;;18.60;6.68;;;7.90;93.10;;;;;;5029322;28;20100;-72
2022/11/29 09:35:37;;;;;;;17.60;6.75;;;7.90;93.00;;;;;;5043726;28;20178;-72
2022/11/29 09:38:05;;;;;;;18.88;7.43;;;7.90;93.10;;;;;;5030409;28;20532;-72
2022/11/29 09:40:42;;;;;;;17.37;7.20;;;7.90;93.00;;;;;;5031275;28;20082;-72
2022/11/29 09:43:20;;;;;;;16.83;5.97;;;8.00;93.10;;;;;;5029992;28;20281;-72
2022/11/29 09:45:53;;;;;;;13.20;4.45;;;8.00;93.10;;;;;;5029972;28;20049;-72
2022/11/29 09:48:37;;;;;;;13.48;5.18;;;8.00;93.00;;;;;;5029360;28;20058;-72
2022/11/29 09:51:14;;;;;;;13.32;5.32;;;8.00;93.00;;;;;;5027356;28;20047;-72
2022/11/29 09:53:56;;;;;;;13.67;5.10;;;8.00;93.00;;;;;;5030541;28;20046;-72
2022/11/29 09:56:30;;;;;;;18.80;6.15;;;8.00;93.10;;;;;;5027603;28;20265;-71
2022/11/29 09:59:00;;;;;;;15.35;6.05;;;8.00;93.10;;;;;;5026733;28;21249;-72
2022/11/29 10:01:32;;;;;;;17.10;7.00;;;8.00;93.00;;;;;;5028643;28;20054;-72
2022/11/29 10:04:04;;;;;;;12.07;4.28;;;8.00;93.10;;;;;;5027266;28;20591;-72
2022/11/29 10:06:37;;;;;;;15.67;5.43;;;8.00;93.00;;;;;;5031082;28;20062;-72
2022/11/29 10:09:15;;;;;;;12.85;5.63;;;8.00;92.90;;;;;;5027151;28;20361;-72
2022/11/29 10:11:55;;;;;;;17.00;5.70;;;8.00;92.90;;;;;;5029856;28;20057;-72
2022/11/29 10:14:26;;;;;;;14.32;4.60;;;8.00;92.90;;;;;;5035365;28;20125;-72
2022/11/29 10:17:02;;;;;;;14.00;5.47;;;8.00;92.80;;;;;;5029626;28;20105;-72
2022/11/29 10:19:34;;;;;;;15.10;6.10;;;8.00;92.80;;;;;;5029773;28;20094;-72
2022/11/29 10:22:07;;;;;;;11.70;4.10;;;8.00;92.80;;;;;;5030592;28;20254;-72
2022/11/29 10:24:34;;;;;;;16.45;5.50;;;8.00;92.80;;;;;;5029102;28;20133;-72
2022/11/29 10:27:03;;;;;;;12.23;4.68;;;8.00;92.80;;;;;;5043187;28;20527;-72
2022/11/29 10:29:30;;;;;;;12.63;4.57;;;8.00;92.70;;;;;;5030306;28;20058;-72
2022/11/29 10:32:03;;;;;;;13.03;4.97;;;8.00;92.70;;;;;;5030731;28;20089;-72
2022/11/29 10:34:32;;;;;;;6.95;1.90;;;8.00;92.60;;;;;;5029056;28;20339;-72
2022/11/29 10:37:01;;;;;;;11.35;4.13;;;8.00;92.60;;;;;;5028668;28;20132;-72
2022/11/29 10:39:38;;;;;;;13.32;5.68;;;8.00;92.50;;;;;;5032400;28;20077;-72
2022/11/29 10:42:47;;;;;;;10.80;3.85;;;7.90;92.50;;;;;;5039142;28;20128;-72
2022/11/29 10:44:59;;;;;;;9.80;3.17;;;7.90;92.60;;;;;;5037612;28;20053;-72
2022/11/29 10:47:26;;;;;;;11.13;4.38;;;7.90;92.60;;;;;;5032586;28;20350;-72
2022/11/29 10:49:55;;;;;;;10.55;3.30;;;7.90;92.50;;;;;;5028979;28;20787;-71
2022/11/29 10:52:23;;;;;;;11.35;3.28;;;7.80;92.50;;;;;;5028040;28;20129;-72
2022/11/29 10:54:56;;;;;;;9.50;2.88;;;7.80;92.60;;;;;;5027822;28;20100;-72
2022/11/29 10:57:23;;;;;;;12.60;4.17;;;7.80;92.60;;;;;;5040034;28;20053;-72
2022/11/29 11:00:03;;;;;;;12.13;4.07;;;7.90;92.60;;;;;;5046760;28;20299;-72
2022/11/29 11:02:31;;;;;;;10.32;4.40;;;7.90;92.70;;;;;;5044467;28;20504;-72
2022/11/29 11:05:01;;;;;;;12.73;4.90;;;7.90;92.70;;;;;;5028615;28;21110;-72
2022/11/29 11:07:31;;;;;;;6.28;2.10;;;7.90;92.70;;;;;;5029712;28;20046;-72
2022/11/29 11:10:00;;;;;;;12.10;3.93;;;7.90;92.80;;;;;;5028686;28;20053;-72
2022/11/29 11:12:29;;;;;;;12.77;3.80;;;7.90;92.70;;;;;;5029407;28;20360;-72
2022/11/29 11:15:15;;;;;;;11.23;3.67;;;8.00;92.60;;;;;;5028507;28;20054;-72
2022/11/29 11:17:56;;;;;;;5.50;1.85;;;7.90;92.60;;;;;;5045071;28;20053;-72
2022/11/29 11:20:27;;;;;;;11.90;3.65;;;7.90;92.60;;;;;;5050131;28;20068;-72
2022/11/29 11:23:00;;;;;;;17.67;3.77;;;7.90;92.60;;;;;;5026523;28;20046;-72
2022/11/29 11:25:30;;;;;;;11.23;4.07;;;7.90;92.70;;;;;;5016616;28;20808;-72
2022/11/29 11:28:10;;;;;;;11.45;3.90;;;8.00;92.80;;;;;;5029608;28;20097;-72
2022/11/29 11:30:37;;;;;;;10.20;2.50;;;8.00;92.90;;;;;;5028824;28;20153;-71
2022/11/29 11:33:17;;;;;;;9.52;3.50;;;8.00;92.90;;;;;;5030725;28;20073;-72
2022/11/29 11:36:01;;;;;;;6.90;2.13;;;8.00;92.90;;;;;;5029581;28;20576;-72
2022/11/29 11:38:28;;;;;;;11.25;3.67;;;8.00;93.10;;;;;;5044431;28;20261;-72
2022/11/29 11:41:06;;;;;;;10.93;4.10;;;8.00;93.20;;;;;;5027460;28;20056;-72
2022/11/29 11:43:34;;;;;;;12.13;4.00;;;8.10;93.20;;;;;;5030028;28;20054;-72
2022/11/29 11:46:02;;;;;;;11.75;4.10;;;8.10;93.20;;;;;;5027367;28;20057;-72
2022/11/29 11:48:29;;;;;;;12.47;3.53;;;8.20;93.20;;;;;;5028945;28;20085;-72
2022/11/29 11:51:00;;;;;;;11.13;3.08;;;8.20;93.20;;;;;;5028974;28;20281;-71
2022/11/29 11:53:29;;;;;;;12.02;4.65;;;8.20;93.10;;;;;;5017250;28;20050;-72
2022/11/29 11:56:01;;;;;;;10.40;3.45;;;8.20;93.20;;;;;;5046967;28;20137;-71
2022/11/29 11:58:31;;;;;;;5.93;1.98;;;8.20;93.20;;;;;;5034531;28;20054;-72
2022/11/29 12:01:00;;;;;;;9.93;2.93;;;8.30;93.20;;;;;;5006832;28;20046;-72
2022/11/29 12:03:33;;;;;;;13.95;4.05;;;8.30;93.30;;;;;;5019607;28;20249;-72
2022/11/29 12:06:20;;;;;;;12.77;3.97;;;8.40;93.20;;;;;;5026939;28;20060;-72
2022/11/29 12:08:48;;;;;;;11.95;3.90;;;8.40;93.40;;;;;;5024647;28;20132;-72
2022/11/29 12:11:18;;;;;;;15.65;4.82;;;8.40;93.60;;;;;;5029688;28;20137;-72
2022/11/29 12:13:49;;;;;;;13.33;4.77;;;8.50;93.50;;;;;;5030582;28;20078;-71
2022/11/29 12:16:26;;;;;;;12.30;3.63;;;8.50;93.60;;;;;;5027887;28;20829;-71
2022/11/29 12:19:00;;;;;;;6.03;1.75;;;8.60;93.70;;;;;;5020216;28;20074;-72
2022/11/29 12:21:33;;;;;;;13.43;4.47;;;8.60;93.60;;;;;;5024104;28;20133;-72
2022/11/29 12:24:10;;;;;;;7.30;2.45;;;8.60;93.60;;;;;;5023695;28;20131;-71
2022/11/29 12:26:39;;;;;;;13.40;3.40;;;8.60;93.70;;;;;;5022291;28;20136;-72
2022/11/29 12:29:13;;;;;;;12.32;4.63;;;8.70;94.00;;;;;;5028792;28;20273;-71
2022/11/29 12:31:53;;;;;;;7.45;2.75;;;8.80;94.00;;;;;;5030591;28;20056;-71
2022/11/29 12:34:34;;;;;;;13.07;3.90;;;8.80;94.10;;;;;;5029909;28;20056;-72
2022/11/29 12:37:10;;;;;;;14.95;4.07;;;8.80;94.00;;;;;;5028487;28;20173;-72
2022/11/29 12:39:55;;;;;;;11.43;2.57;;;8.80;93.90;;;;;;5027655;28;20061;-72
2022/11/29 12:42:35;;;;;;;7.35;1.98;;;8.90;94.00;;;;;;5028935;28;20261;-73
2022/11/29 12:45:15;;;;;;;14.65;4.03;;;8.90;93.90;;;;;;5029768;28;20125;-72
2022/11/29 12:47:50;;;;;;;14.00;4.80;;;8.90;94.00;;;;;;5030535;28;20049;-72
2022/11/29 12:53:54;;;;;;;15.17;6.00;;;8.90;93.90;;;;;;5048897;28;20048;-71
2022/11/29 12:56:26;;;;;;;12.73;4.30;;;9.00;93.90;;;;;;5063732;28;20362;-72
2022/11/29 12:59:08;;;;;;;14.43;4.45;;;9.00;93.90;;;;;;5066213;28;20053;-71
2022/11/29 13:01:46;;;;;;;10.27;3.90;;;9.00;93.80;;;;;;5049087;28;20541;-72
2022/11/29 13:04:23;;;;;;;14.90;4.15;;;9.00;93.80;;;;;;5049329;28;20045;-72
2022/11/29 13:07:01;;;;;;;11.73;2.70;;;9.00;93.70;;;;;;5032120;28;20046;-72
2022/11/29 13:09:47;;;;;;;16.50;5.50;;;9.00;93.80;;;;;;5051501;28;20288;-72
2022/11/29 13:12:20;;;;;;;15.82;4.88;;;9.00;93.80;;;;;;5061555;28;20055;-71
2022/11/29 13:14:55;;;;;;;16.77;5.13;;;9.00;93.90;;;;;;5033025;28;20495;-71
2022/11/29 13:17:30;;;;;;;14.02;5.20;;;9.00;93.90;;;;;;5035407;28;20077;-72
2022/11/29 13:20:03;;;;;;;14.03;4.57;;;9.10;93.80;;;;;;5057848;28;20144;-71
2022/11/29 13:22:41;;;;;;;16.50;5.70;;;9.10;93.80;;;;;;5059572;28;20237;-71
2022/11/29 13:25:16;;;;;;;17.63;5.72;;;9.10;93.70;;;;;;5054779;28;20240;-72
2022/11/29 13:27:50;;;;;;;15.95;5.70;;;9.20;93.70;;;;;;5064775;28;20054;-71
2022/11/29 13:30:17;;;;;;;16.17;5.80;;;9.20;93.60;;;;;;5065987;28;20145;-71
2022/11/29 13:32:53;;;;;;;15.37;5.23;;;9.20;93.70;;;;;;5053426;28;20049;-72
2022/11/29 13:35:27;;;;;;;11.10;4.65;;;9.20;93.80;;;;;;5032809;28;20275;-72
2022/11/29 13:37:57;;;;;;;15.95;4.75;;;9.20;93.80;;;;;;5054796;28;20079;-71
2022/11/29 13:40:36;;;;;;;15.70;5.47;;;9.20;93.70;;;;;;5032678;28;20503;-71